createdAt,value
2018-03-29T00:01:34.447Z,72.30
2018-03-29T00:04:02.721Z,72.00
2018-03-29T00:06:30.939Z,72.00
2018-03-29T00:08:59.214Z,72.00
2018-03-29T00:11:27.451Z,72.00
2018-03-29T00:13:55.692Z,72.00
2018-03-29T00:16:24.693Z,71.90
2018-03-29T00:18:53.705Z,71.80
2018-03-29T00:21:22.690Z,71.80
2018-03-29T00:23:50.926Z,71.80
2018-03-29T00:26:19.157Z,72.00
2018-03-29T00:28:47.399Z,71.90
2018-03-29T00:31:15.626Z,72.00
2018-03-29T00:33:43.877Z,72.10
2018-03-29T00:36:12.887Z,72.20
2018-03-29T00:38:41.140Z,72.10
2018-03-29T00:41:10.130Z,72.20
2018-03-29T00:43:39.156Z,72.50
2018-03-29T00:46:08.329Z,72.50
2018-03-29T00:48:37.344Z,72.60
2018-03-29T00:51:05.577Z,73.30
2018-03-29T00:53:44.685Z,72.70
2018-03-29T00:56:12.941Z,72.90
2018-03-29T00:58:41.188Z,73.00
2018-03-29T01:01:10.230Z,73.20
2018-03-29T01:03:38.458Z,73.20
2018-03-29T01:06:07.458Z,73.30
2018-03-29T01:08:36.497Z,73.20
2018-03-29T01:11:04.729Z,73.10
2018-03-29T01:13:33.728Z,73.00
2018-03-29T01:16:01.982Z,72.90
2018-03-29T01:18:30.993Z,72.90
2018-03-29T01:20:59.220Z,72.80
2018-03-29T01:23:27.462Z,72.90
2018-03-29T01:25:55.707Z,73.00
2018-03-29T01:28:24.727Z,73.20
2018-03-29T01:30:53.000Z,73.10
2018-03-29T01:33:21.217Z,73.10
2018-03-29T01:35:49.482Z,73.20
2018-03-29T01:38:17.723Z,73.30
2018-03-29T01:40:46.377Z,73.30
2018-03-29T01:43:14.649Z,73.30
2018-03-29T01:45:42.832Z,73.40
2018-03-29T01:48:11.850Z,73.30
2018-03-29T01:50:40.119Z,73.30
2018-03-29T01:53:08.343Z,73.40
2018-03-29T01:55:36.570Z,73.30
2018-03-29T01:58:05.615Z,73.50
2018-03-29T02:00:33.952Z,73.40
2018-03-29T02:03:02.228Z,73.20
2018-03-29T02:05:30.501Z,73.50
2018-03-29T02:07:58.749Z,73.70
2018-03-29T02:10:27.020Z,73.80
2018-03-29T02:12:55.254Z,73.70
2018-03-29T02:15:23.491Z,73.60
2018-03-29T02:17:52.502Z,73.70
2018-03-29T02:20:20.714Z,73.70
2018-03-29T02:22:48.965Z,73.60
2018-03-29T02:25:17.349Z,73.70
2018-03-29T02:27:45.580Z,73.80
2018-03-29T02:30:13.834Z,73.90
2018-03-29T02:32:42.063Z,73.90
2018-03-29T02:35:10.349Z,73.90
2018-03-29T02:37:38.648Z,74.00
2018-03-29T02:40:06.908Z,74.20
2018-03-29T02:42:35.264Z,74.10
2018-03-29T02:45:03.615Z,74.90
2018-03-29T02:47:31.807Z,74.00
2018-03-29T02:50:00.818Z,74.00
2018-03-29T02:52:29.120Z,73.90
2018-03-29T02:54:57.374Z,74.10
2018-03-29T02:57:25.612Z,74.10
2018-03-29T02:59:53.872Z,73.90
2018-03-29T03:02:22.112Z,74.00
2018-03-29T03:04:50.384Z,74.00
2018-03-29T03:07:18.761Z,74.10
2018-03-29T03:09:47.008Z,74.00
2018-03-29T03:12:15.251Z,74.10
2018-03-29T03:14:43.501Z,74.40
2018-03-29T03:17:11.726Z,74.40
2018-03-29T03:19:39.981Z,74.60
2018-03-29T03:22:08.238Z,74.80
2018-03-29T03:24:36.466Z,74.80
2018-03-29T03:27:04.734Z,75.00
2018-03-29T03:29:32.984Z,74.90
2018-03-29T03:32:01.210Z,74.90
2018-03-29T03:34:29.480Z,75.00
2018-03-29T03:36:58.544Z,75.20
2018-03-29T03:39:26.787Z,75.10
2018-03-29T03:41:55.047Z,75.10
2018-03-29T03:44:23.325Z,75.10
2018-03-29T03:46:51.578Z,75.10
2018-03-29T03:49:19.801Z,75.10
2018-03-29T03:51:48.051Z,75.40
2018-03-29T03:54:16.279Z,75.60
2018-03-29T03:56:44.507Z,75.80
2018-03-29T03:59:12.816Z,75.80
2018-03-29T04:01:41.047Z,75.80
2018-03-29T04:04:09.272Z,75.90
2018-03-29T04:06:37.676Z,75.20
2018-03-29T04:09:05.881Z,75.30
2018-03-29T04:11:34.135Z,75.50
2018-03-29T04:14:03.145Z,75.50
2018-03-29T04:16:31.419Z,75.40
2018-03-29T04:18:59.707Z,75.30
2018-03-29T04:21:27.942Z,75.10
2018-03-29T04:23:56.238Z,74.60
2018-03-29T04:26:25.226Z,73.70
2018-03-29T04:28:54.230Z,72.90
2018-03-29T04:31:23.241Z,73.20
2018-03-29T04:33:51.480Z,73.20
2018-03-29T04:36:19.715Z,72.70
2018-03-29T04:38:47.999Z,72.60
2018-03-29T04:41:16.182Z,72.30
2018-03-29T04:43:44.410Z,71.80
2018-03-29T04:46:12.642Z,72.00
2018-03-29T04:48:40.866Z,71.80
2018-03-29T04:51:09.145Z,71.60
2018-03-29T04:53:37.372Z,71.50
2018-03-29T04:56:05.640Z,71.30
2018-03-29T04:58:33.842Z,71.10
2018-03-29T05:01:02.104Z,71.40
2018-03-29T05:03:30.314Z,71.80
2018-03-29T05:05:59.351Z,71.80
2018-03-29T05:08:27.608Z,71.80
2018-03-29T05:10:55.860Z,71.90
2018-03-29T05:13:25.081Z,71.20
2018-03-29T05:15:53.303Z,71.20
2018-03-29T05:18:21.545Z,70.90
2018-03-29T05:20:49.791Z,70.80
2018-03-29T05:23:18.037Z,70.60
2018-03-29T05:25:46.255Z,70.50
2018-03-29T05:28:14.502Z,70.00
2018-03-29T05:30:43.520Z,70.50
2018-03-29T05:33:11.767Z,70.40
2018-03-29T05:35:40.754Z,69.80
2018-03-29T05:38:08.987Z,70.40
2018-03-29T05:40:37.235Z,70.40
2018-03-29T05:43:06.247Z,70.80
2018-03-29T05:45:34.488Z,70.80
2018-03-29T05:48:02.731Z,70.40
2018-03-29T05:50:30.974Z,69.70
2018-03-29T05:52:59.203Z,69.50
2018-03-29T05:55:27.458Z,69.60
2018-03-29T05:57:55.711Z,69.50
2018-03-29T06:00:23.951Z,69.40
2018-03-29T06:02:52.942Z,68.10
2018-03-29T06:05:21.170Z,68.00
2018-03-29T06:07:49.383Z,68.60
2018-03-29T06:10:17.619Z,68.90
2018-03-29T06:12:45.829Z,69.40
2018-03-29T06:15:15.855Z,69.40
2018-03-29T06:20:48.626Z,68.70
2018-03-29T06:23:16.965Z,68.80
2018-03-29T06:25:45.121Z,69.00
2018-03-29T06:28:13.368Z,68.80
2018-03-29T06:30:41.642Z,68.70
2018-03-29T06:33:09.860Z,68.30
2018-03-29T06:35:38.087Z,68.60
2018-03-29T06:38:06.315Z,68.70
2018-03-29T06:40:34.538Z,68.70
2018-03-29T06:43:02.790Z,68.70
2018-03-29T06:45:31.030Z,68.60
2018-03-29T06:48:00.023Z,68.80
2018-03-29T06:50:29.035Z,68.50
2018-03-29T06:52:57.319Z,68.50
2018-03-29T06:55:25.533Z,68.30
2018-03-29T06:57:53.751Z,68.10
2018-03-29T07:00:22.754Z,68.40
2018-03-29T07:02:50.978Z,68.40
2018-03-29T07:05:19.229Z,67.40
2018-03-29T07:07:47.462Z,67.90
2018-03-29T07:10:16.465Z,67.70
2018-03-29T07:12:44.701Z,67.70
2018-03-29T07:15:12.985Z,67.40
2018-03-29T07:17:41.211Z,66.60
2018-03-29T07:20:09.461Z,67.20
2018-03-29T07:22:38.470Z,67.60
2018-03-29T07:25:06.733Z,66.70
2018-03-29T07:27:35.730Z,67.40
2018-03-29T07:30:04.754Z,67.20
2018-03-29T07:32:32.977Z,66.40
2018-03-29T07:35:01.222Z,66.60
2018-03-29T07:37:29.458Z,67.10
2018-03-29T07:39:57.745Z,66.60
2018-03-29T07:42:26.711Z,66.60
2018-03-29T07:44:54.958Z,66.50
2018-03-29T07:47:23.165Z,66.50
2018-03-29T07:49:52.179Z,67.00
2018-03-29T07:52:20.414Z,66.90
2018-03-29T07:54:48.649Z,66.60
2018-03-29T07:57:16.886Z,66.00
2018-03-29T07:59:45.879Z,65.90
2018-03-29T08:02:14.905Z,66.20
2018-03-29T08:04:43.113Z,66.10
2018-03-29T08:07:11.367Z,66.00
2018-03-29T08:09:39.625Z,66.00
2018-03-29T08:12:07.860Z,65.60
2018-03-29T08:14:36.088Z,65.70
2018-03-29T08:17:04.318Z,65.10
2018-03-29T08:19:32.576Z,65.50
2018-03-29T08:22:00.815Z,65.10
2018-03-29T08:24:29.055Z,65.00
2018-03-29T08:26:58.051Z,65.30
2018-03-29T08:29:27.064Z,65.30
2018-03-29T08:31:55.286Z,65.20
2018-03-29T08:34:23.530Z,65.30
2018-03-29T08:36:51.772Z,64.80
2018-03-29T08:39:20.754Z,65.60
2018-03-29T08:41:48.959Z,65.50
2018-03-29T08:44:17.190Z,65.40
2018-03-29T08:46:45.414Z,65.80
2018-03-29T08:49:13.662Z,65.80
2018-03-29T08:51:41.884Z,64.80
2018-03-29T08:54:10.100Z,65.20
2018-03-29T08:56:38.370Z,65.50
2018-03-29T08:59:06.610Z,66.30
2018-03-29T09:01:34.866Z,66.00
2018-03-29T09:04:03.118Z,65.90
2018-03-29T09:06:32.222Z,65.60
2018-03-29T09:09:01.218Z,65.90
2018-03-29T09:11:30.268Z,65.20
2018-03-29T09:13:58.500Z,65.10
2018-03-29T09:16:26.854Z,64.70
2018-03-29T09:18:55.103Z,64.90
2018-03-29T09:21:23.324Z,65.90
2018-03-29T09:23:51.736Z,64.60
2018-03-29T09:26:20.240Z,64.00
2018-03-29T09:28:48.578Z,63.70
2018-03-29T09:31:16.922Z,62.90
2018-03-29T09:33:45.226Z,63.40
2018-03-29T09:36:14.209Z,62.70
2018-03-29T09:38:43.306Z,61.40
2018-03-29T09:41:12.309Z,61.10
2018-03-29T09:43:40.530Z,61.10
2018-03-29T09:46:08.812Z,61.30
2018-03-29T09:48:37.074Z,60.40
2018-03-29T09:51:05.302Z,61.00
2018-03-29T09:53:34.268Z,61.80
2018-03-29T09:56:02.498Z,60.90
2018-03-29T09:58:30.845Z,60.90
2018-03-29T10:01:05.691Z,61.40
2018-03-29T10:03:39.829Z,62.10
2018-03-29T10:09:13.373Z,60.90
2018-03-29T10:11:41.635Z,61.00
2018-03-29T10:14:09.897Z,61.30
2018-03-29T10:16:38.162Z,61.10
2018-03-29T10:19:06.501Z,61.30
2018-03-29T10:21:34.769Z,61.40
2018-03-29T10:24:03.053Z,60.30
2018-03-29T10:26:31.238Z,59.90
2018-03-29T10:28:59.484Z,60.10
2018-03-29T10:31:27.785Z,59.20
2018-03-29T10:33:56.075Z,59.40
2018-03-29T10:36:25.151Z,59.00
2018-03-29T10:38:53.464Z,59.70
2018-03-29T10:41:22.661Z,58.90
2018-03-29T10:43:51.728Z,58.00
2018-03-29T10:46:20.788Z,58.00
2018-03-29T10:48:49.089Z,58.00
2018-03-29T10:51:17.313Z,56.70
2018-03-29T10:53:45.826Z,57.20
2018-03-29T10:56:14.917Z,58.10
2018-03-29T10:58:43.123Z,57.50
2018-03-29T11:01:11.354Z,57.70
2018-03-29T11:03:42.999Z,58.00
2018-03-29T11:06:11.214Z,58.20
2018-03-29T11:08:39.463Z,58.50
2018-03-29T11:11:07.761Z,58.80
2018-03-29T11:13:36.109Z,58.60
2018-03-29T11:16:04.454Z,58.30
2018-03-29T11:18:33.525Z,58.80
2018-03-29T11:21:02.421Z,58.20
2018-03-29T11:23:30.693Z,57.40
2018-03-29T11:25:58.953Z,57.60
2018-03-29T11:28:27.194Z,57.50
2018-03-29T11:30:55.471Z,56.90
2018-03-29T11:33:23.784Z,56.50
2018-03-29T11:35:55.526Z,57.00
2018-03-29T11:38:23.859Z,56.90
2018-03-29T11:40:54.631Z,57.00
2018-03-29T11:43:23.745Z,56.90
2018-03-29T11:45:52.177Z,57.00
2018-03-29T11:48:21.211Z,57.30
2018-03-29T11:50:49.419Z,57.20
2018-03-29T11:53:17.771Z,57.70
2018-03-29T11:55:45.983Z,57.20
2018-03-29T11:58:15.235Z,56.30
2018-03-29T12:00:43.465Z,56.10
2018-03-29T12:03:11.739Z,56.80
2018-03-29T12:05:39.940Z,55.90
2018-03-29T12:08:08.973Z,55.70
2018-03-29T12:10:37.212Z,55.60
2018-03-29T12:13:05.954Z,55.60
2018-03-29T12:15:34.204Z,55.60
2018-03-29T12:18:02.497Z,56.00
2018-03-29T12:20:31.210Z,55.60
2018-03-29T12:23:00.176Z,55.30
2018-03-29T12:25:28.545Z,55.20
2018-03-29T12:27:56.868Z,55.90
2018-03-29T12:30:25.100Z,56.40
2018-03-29T12:32:53.450Z,57.50
2018-03-29T12:35:21.761Z,57.50
2018-03-29T12:37:49.998Z,58.10
2018-03-29T12:40:18.251Z,57.70
2018-03-29T12:42:46.479Z,57.80
2018-03-29T12:45:14.689Z,58.50
2018-03-29T12:47:42.996Z,58.60
2018-03-29T12:50:12.051Z,60.00
2018-03-29T12:52:40.314Z,59.90
2018-03-29T12:55:20.437Z,59.60
2018-03-29T12:58:00.544Z,58.90
2018-03-29T13:00:28.796Z,58.40
2018-03-29T13:02:57.130Z,57.80
2018-03-29T13:05:26.137Z,56.20
2018-03-29T13:07:58.131Z,56.20
2018-03-29T13:10:26.515Z,55.90
2018-03-29T13:12:54.950Z,55.60
2018-03-29T13:15:24.108Z,54.20
2018-03-29T13:17:52.347Z,54.10
2018-03-29T13:20:20.776Z,54.20
2018-03-29T13:22:49.145Z,55.00
2018-03-29T13:25:17.587Z,54.30
2018-03-29T13:27:45.863Z,54.80
2018-03-29T13:30:14.103Z,54.80
2018-03-29T13:32:43.118Z,55.40
2018-03-29T13:35:11.382Z,54.80
2018-03-29T13:37:40.586Z,55.20
2018-03-29T13:40:09.685Z,55.40
2018-03-29T13:42:37.971Z,55.30
2018-03-29T13:45:06.294Z,55.20
2018-03-29T13:47:34.561Z,54.70
2018-03-29T13:50:02.781Z,54.80
2018-03-29T13:52:31.868Z,53.70
2018-03-29T13:55:00.130Z,53.70
2018-03-29T13:57:28.362Z,54.00
2018-03-29T13:59:56.681Z,53.90
2018-03-29T14:02:24.952Z,53.50
2018-03-29T14:04:53.268Z,53.50
2018-03-29T14:07:21.526Z,53.70
2018-03-29T14:09:50.633Z,53.90
2018-03-29T14:12:19.650Z,53.90
2018-03-29T14:14:47.937Z,53.90
2018-03-29T14:17:16.333Z,53.80
2018-03-29T14:19:44.665Z,53.80
2018-03-29T14:22:13.674Z,53.70
2018-03-29T14:24:41.925Z,53.70
2018-03-29T14:27:11.047Z,53.60
2018-03-29T14:29:39.287Z,53.50
2018-03-29T14:32:07.511Z,53.70
2018-03-29T14:34:35.764Z,53.60
2018-03-29T14:37:03.990Z,53.50
2018-03-29T14:39:32.227Z,53.50
2018-03-29T14:42:00.501Z,53.30
2018-03-29T14:44:28.745Z,53.40
2018-03-29T14:46:57.801Z,54.20
2018-03-29T14:49:26.804Z,54.30
2018-03-29T14:51:55.054Z,54.30
2018-03-29T14:54:23.301Z,54.40
2018-03-29T14:56:52.375Z,54.40
2018-03-29T14:59:20.611Z,54.40
2018-03-29T15:01:48.853Z,54.30
2018-03-29T15:04:17.877Z,53.40
2018-03-29T15:06:46.126Z,53.30
2018-03-29T15:09:14.359Z,53.10
2018-03-29T15:11:42.578Z,53.00
2018-03-29T15:14:10.846Z,53.00
2018-03-29T15:16:39.836Z,52.80
2018-03-29T15:19:08.858Z,52.80
2018-03-29T15:21:37.079Z,52.70
2018-03-29T15:24:05.324Z,52.70
2018-03-29T15:26:33.666Z,52.70
2018-03-29T15:29:02.736Z,52.80
2018-03-29T15:31:31.024Z,52.80
2018-03-29T15:33:59.207Z,52.20
2018-03-29T15:36:28.229Z,52.00
2018-03-29T15:38:56.471Z,52.00
2018-03-29T15:41:25.471Z,52.60
2018-03-29T15:43:54.742Z,52.70
2018-03-29T15:46:27.787Z,52.60
2018-03-29T15:48:56.856Z,53.10
2018-03-29T15:51:25.858Z,53.30
2018-03-29T15:53:54.085Z,53.20
2018-03-29T15:56:22.327Z,53.30
2018-03-29T15:58:50.542Z,53.90
2018-03-29T16:01:18.769Z,54.40
2018-03-29T16:03:47.000Z,54.70
2018-03-29T16:06:15.287Z,55.20
2018-03-29T16:08:44.285Z,54.70
2018-03-29T16:11:12.818Z,54.60
2018-03-29T16:13:41.097Z,55.10
2018-03-29T16:16:09.341Z,54.10
2018-03-29T16:18:38.371Z,53.70
2018-03-29T16:21:06.646Z,53.70
2018-03-29T16:23:34.956Z,53.80
2018-03-29T16:26:03.230Z,53.70
2018-03-29T16:28:31.497Z,53.70
2018-03-29T16:30:59.767Z,53.70
2018-03-29T16:33:27.995Z,53.70
2018-03-29T16:35:56.997Z,53.70
2018-03-29T16:38:25.279Z,53.60
2018-03-29T16:40:53.541Z,53.50
2018-03-29T16:43:21.770Z,53.70
2018-03-29T16:45:50.781Z,53.70
2018-03-29T16:48:19.043Z,53.70
2018-03-29T16:50:47.313Z,54.00
2018-03-29T16:53:15.621Z,54.60
2018-03-29T16:55:43.896Z,55.70
2018-03-29T16:58:12.178Z,55.50
2018-03-29T17:00:41.201Z,57.30
2018-03-29T17:03:09.425Z,57.30
2018-03-29T17:05:37.673Z,57.90
2018-03-29T17:08:06.000Z,58.10
2018-03-29T17:10:34.237Z,58.70
2018-03-29T17:13:02.509Z,58.90
2018-03-29T17:15:30.731Z,58.90
2018-03-29T17:17:59.210Z,59.00
2018-03-29T17:20:27.584Z,59.00
2018-03-29T17:22:56.028Z,58.90
2018-03-29T17:25:24.258Z,59.00
2018-03-29T17:27:53.350Z,58.80
2018-03-29T17:30:22.365Z,59.00
2018-03-29T17:32:50.627Z,59.00
2018-03-29T17:35:19.637Z,59.40
2018-03-29T17:37:47.856Z,59.30
2018-03-29T17:40:16.095Z,59.30
2018-03-29T17:42:44.478Z,59.50
2018-03-29T17:45:12.713Z,60.20
2018-03-29T17:47:42.739Z,61.10
2018-03-29T17:50:11.739Z,61.00
2018-03-29T17:52:40.745Z,60.90
2018-03-29T17:55:08.967Z,60.80
2018-03-29T17:57:37.199Z,61.30
2018-03-29T18:00:06.363Z,61.50
2018-03-29T18:02:34.642Z,61.70
2018-03-29T18:05:02.918Z,61.60
2018-03-29T18:07:31.165Z,61.80
2018-03-29T18:09:59.534Z,61.60
2018-03-29T18:12:27.799Z,61.60
2018-03-29T18:14:56.226Z,61.60
2018-03-29T18:17:26.150Z,61.60
2018-03-29T18:19:55.147Z,61.60
2018-03-29T18:22:24.155Z,61.20
2018-03-29T18:24:52.392Z,61.10
2018-03-29T18:27:24.366Z,61.00
2018-03-29T18:29:52.614Z,60.70
2018-03-29T18:32:20.935Z,60.70
2018-03-29T18:34:49.935Z,60.60
2018-03-29T18:37:18.993Z,60.60
2018-03-29T18:39:47.234Z,60.50
2018-03-29T18:42:15.469Z,60.40
2018-03-29T18:44:43.770Z,60.50
2018-03-29T18:47:12.751Z,60.80
2018-03-29T18:49:41.823Z,60.70
2018-03-29T18:52:10.193Z,60.70
2018-03-29T18:54:38.565Z,60.70
2018-03-29T18:57:06.800Z,60.70
2018-03-29T18:59:35.226Z,60.80
2018-03-29T19:02:03.500Z,60.90
2018-03-29T19:04:31.749Z,60.80
2018-03-29T19:07:00.030Z,60.80
2018-03-29T19:09:28.385Z,60.70
2018-03-29T19:11:56.610Z,60.60
2018-03-29T19:14:24.929Z,60.70
2018-03-29T19:16:53.267Z,60.60
2018-03-29T19:19:21.630Z,60.60
2018-03-29T19:21:50.135Z,60.60
2018-03-29T19:24:18.534Z,60.60
2018-03-29T19:26:46.846Z,60.60
2018-03-29T19:29:15.134Z,60.80
2018-03-29T19:31:43.532Z,60.90
2018-03-29T19:34:11.851Z,60.90
2018-03-29T19:36:40.829Z,61.10
2018-03-29T19:39:09.231Z,61.00
2018-03-29T19:41:38.247Z,61.10
2018-03-29T19:44:06.465Z,61.10
2018-03-29T19:46:34.692Z,61.00
2018-03-29T19:49:02.953Z,60.90
2018-03-29T19:51:32.123Z,60.80
2018-03-29T19:54:00.359Z,60.70
2018-03-29T19:56:28.597Z,60.90
2018-03-29T19:58:57.758Z,61.10
2018-03-29T20:01:25.986Z,61.00
2018-03-29T20:03:54.235Z,61.20
2018-03-29T20:06:22.587Z,61.10
2018-03-29T20:08:50.822Z,61.10
2018-03-29T20:11:19.166Z,61.30
2018-03-29T20:13:47.531Z,61.30
2018-03-29T20:16:15.737Z,61.10
2018-03-29T20:18:44.747Z,61.00
2018-03-29T20:21:13.071Z,61.00
2018-03-29T20:23:41.373Z,61.00
2018-03-29T20:26:10.415Z,61.20
2018-03-29T20:28:38.644Z,61.20
2018-03-29T20:31:07.662Z,62.00
2018-03-29T20:33:35.886Z,62.00
2018-03-29T20:36:04.157Z,62.70
2018-03-29T20:38:32.737Z,62.40
2018-03-29T20:41:00.943Z,62.80
2018-03-29T20:43:29.181Z,63.20
2018-03-29T20:45:57.410Z,63.30
2018-03-29T20:48:26.406Z,63.50
2018-03-29T20:50:55.435Z,63.70
2018-03-29T20:53:23.707Z,63.70
2018-03-29T20:55:51.987Z,64.40
2018-03-29T20:58:20.308Z,64.10
2018-03-29T21:00:48.513Z,64.00
2018-03-29T21:03:16.758Z,64.10
2018-03-29T21:05:44.952Z,64.10
2018-03-29T21:08:13.949Z,64.50
2018-03-29T21:10:42.995Z,64.60
2018-03-29T21:13:11.993Z,64.60
2018-03-29T21:15:40.235Z,64.60
2018-03-29T21:18:08.482Z,64.50
2018-03-29T21:20:37.473Z,64.90
2018-03-29T21:23:06.450Z,65.10
2018-03-29T21:25:34.764Z,64.90
2018-03-29T21:28:03.758Z,64.90
2018-03-29T21:30:31.993Z,64.90
2018-03-29T21:33:00.224Z,64.70
2018-03-29T21:35:28.478Z,64.70
2018-03-29T21:37:57.446Z,64.60
2018-03-29T21:40:25.687Z,64.60
2018-03-29T21:42:53.910Z,64.70
2018-03-29T21:45:22.888Z,64.80
2018-03-29T21:47:52.011Z,64.80
2018-03-29T21:50:20.243Z,64.80
2018-03-29T21:52:48.482Z,65.60
2018-03-29T21:55:16.687Z,64.80
2018-03-29T21:57:44.952Z,64.90
2018-03-29T22:00:13.148Z,65.00
2018-03-29T22:02:41.401Z,65.30
2018-03-29T22:05:09.642Z,65.60
2018-03-29T22:07:38.636Z,65.90
2018-03-29T22:10:06.862Z,65.90
2018-03-29T22:12:35.096Z,66.20
2018-03-29T22:15:03.313Z,65.80
2018-03-29T22:17:31.525Z,65.70
2018-03-29T22:20:00.529Z,65.50
2018-03-29T22:22:29.504Z,65.30
2018-03-29T22:24:57.742Z,65.20
2018-03-29T22:27:25.963Z,65.30
2018-03-29T22:29:54.961Z,65.10
2018-03-29T22:32:23.953Z,64.80
2018-03-29T22:34:52.963Z,64.50
2018-03-29T22:37:21.232Z,64.40
2018-03-29T22:39:50.237Z,64.40
2018-03-29T22:42:18.445Z,64.30
2018-03-29T22:44:46.683Z,64.60
2018-03-29T22:47:14.930Z,64.80
2018-03-29T22:49:43.146Z,64.60
2018-03-29T22:52:11.390Z,64.80
2018-03-29T22:54:39.601Z,64.60
2018-03-29T22:57:07.853Z,65.30
2018-03-29T22:59:36.858Z,64.60
2018-03-29T23:02:05.065Z,64.60
2018-03-29T23:04:33.398Z,64.80
2018-03-29T23:07:02.390Z,65.40
2018-03-29T23:09:31.367Z,65.30
2018-03-29T23:11:59.637Z,65.30
2018-03-29T23:14:27.833Z,65.50
2018-03-29T23:16:56.823Z,65.60
2018-03-29T23:19:25.158Z,65.50
2018-03-29T23:21:53.366Z,65.70
2018-03-29T23:24:21.596Z,66.00
2018-03-29T23:26:49.826Z,66.60
2018-03-29T23:29:18.829Z,66.20
2018-03-29T23:31:47.807Z,66.00
2018-03-29T23:34:16.862Z,66.10
2018-03-29T23:36:45.793Z,65.50
2018-03-29T23:39:14.802Z,65.60
2018-03-29T23:41:43.784Z,65.60
2018-03-29T23:44:12.055Z,65.50
2018-03-29T23:46:40.274Z,65.10
2018-03-29T23:49:08.527Z,64.80
2018-03-29T23:51:37.562Z,64.90
2018-03-29T23:54:05.796Z,64.80
2018-03-29T23:56:34.768Z,65.00
2018-03-29T23:59:03.021Z,64.90
